Casper-Natrona County International Airport
KCPR : now visible

Airfield :











YOU CAN JOIN US ON...

 
LOGIN :

Register | Disclaimer

   EN    FR    IT 

 









Legend :    VFR   Marginal VFR   IFR   Intensive IFR   Very Intensive IFR
Visi :
Ceiling :
>= 8 km
>= 3000ft
5 to 8 km
1000 to 3000 ft
1500m to 5 km
500 to 1000 ft
800 to 1500m
200 to 500 ft
< 800m
< 200 ft
Symbols :   Thunderstorms  Fog  Heavy snow  Heavy precipitations  Wind > 20 kt






- Airport Elevation : 5350 ft
- IATA code : CPR


KCPR - Casper-Natrona County International

CURRENT METAR :
  • 040753Z AUTO 21014KT 10SM CLR M03/M09 A3019 RMK AO2 SLP243 T10331094

EXPIRED METARs :
  • 040653Z AUTO 25009KT 10SM CLR M06/M11 A3022 RMK AO2 SLP263 T10561106 400391100
  • 040553Z AUTO 23008KT 10SM CLR M06/M11 A3022 RMK AO2 SLP269 T10611111 11006 21061 53009
  • 040453Z AUTO 22010G20KT 10SM CLR M02/M11 A3020 RMK AO2 SLP256 T10221106

TAF KCPR
Valid from the 04 at 06:00 until the 05 at 06:00 UTC


040532Z 0406/0506 22014KT P6SM SKC
FM041500 22020G35KT P6SM SCT200
FM050000 22014G20KT P6SM SCT050 BKN100
KZDV FIR / North America



MET'MAP, your aeronautical weather chart ! - Copyright ORBIFLY December 2007 - Disclaimer

ORBIFLY MET'MAP TEAM :

Programming & Development : Alexandra Zaïnal
Original concept : Baudouin d'Aumeries
Technical & hardware support : Manuel Goepfert
Assistance : Marc-Olivier Méhu




SOURCES & CREDITS :

   NOAA       Earth
Advisory